createdAt,value
2018-12-31T00:00:21.360Z,65.90
2018-12-31T00:01:20.358Z,66.40
2018-12-31T00:02:14.938Z,59.70
2018-12-31T00:03:15.854Z,61.80
2018-12-31T00:04:15.896Z,56.70
2018-12-31T00:05:22.395Z,52.60
2018-12-31T00:06:26.383Z,44.10
2018-12-31T00:07:16.361Z,38.30
2018-12-31T00:08:16.858Z,39.50
2018-12-31T00:09:15.058Z,38.60
2018-12-31T00:10:21.859Z,35.10
2018-12-31T00:11:16.440Z,32.10
2018-12-31T00:12:15.646Z,32.30
2018-12-31T00:13:19.360Z,32.50
2018-12-31T00:14:19.902Z,30.60
2018-12-31T00:15:23.854Z,28.80
2018-12-31T00:16:16.425Z,27.40
2018-12-31T00:17:18.376Z,28.00
2018-12-31T00:18:18.354Z,27.30
2018-12-31T00:19:16.984Z,26.10
2018-12-31T00:20:18.150Z,28.80
2018-12-31T00:21:17.372Z,29.00
2018-12-31T00:22:25.358Z,30.30
2018-12-31T00:23:20.311Z,26.30
2018-12-31T00:24:18.030Z,24.80
2018-12-31T00:25:19.855Z,25.90
2018-12-31T00:26:20.412Z,25.80
2018-12-31T00:27:18.633Z,27.60
2018-12-31T00:28:20.359Z,25.80
2018-12-31T00:29:21.842Z,24.30
2018-12-31T00:30:20.859Z,25.00
2018-12-31T00:31:19.317Z,25.80
2018-12-31T00:32:21.373Z,25.20
2018-12-31T00:33:25.398Z,27.20
2018-12-31T00:34:23.793Z,25.20
2018-12-31T00:35:27.891Z,24.60
2018-12-31T00:36:20.219Z,24.50
2018-12-31T00:37:20.428Z,25.20
2018-12-31T00:38:24.360Z,25.20
2018-12-31T00:39:21.801Z,26.40
2018-12-31T00:40:21.831Z,28.70
2018-12-31T00:41:28.858Z,33.10
2018-12-31T00:42:22.934Z,31.10
2018-12-31T00:43:23.356Z,31.30
2018-12-31T00:44:21.639Z,30.10
2018-12-31T00:45:21.717Z,32.90
2018-12-31T00:46:23.856Z,31.40
2018-12-31T00:47:37.860Z,30.30
2018-12-31T00:48:22.179Z,32.10
2018-12-31T00:49:23.386Z,28.50
2018-12-31T00:50:26.944Z,28.50
2018-12-31T00:51:24.364Z,28.30
2018-12-31T00:52:22.939Z,28.00
2018-12-31T00:53:24.875Z,26.80
2018-12-31T00:54:24.921Z,27.30
2018-12-31T00:55:27.354Z,25.30
2018-12-31T00:56:25.370Z,25.70
2018-12-31T00:57:24.866Z,24.50
2018-12-31T00:58:25.442Z,25.40
2018-12-31T00:59:25.862Z,25.00
2018-12-31T01:00:25.856Z,24.80
2018-12-31T01:01:26.356Z,23.90
2018-12-31T01:02:25.849Z,22.80
2018-12-31T01:03:26.370Z,23.20
2018-12-31T01:04:26.396Z,21.40
2018-12-31T01:05:26.858Z,21.60
2018-12-31T01:06:26.873Z,21.80
2018-12-31T01:07:31.448Z,22.30
2018-12-31T01:08:25.637Z,23.30
2018-12-31T01:09:25.869Z,22.30
2018-12-31T01:10:26.014Z,21.90
2018-12-31T01:11:27.875Z,21.20
2018-12-31T01:12:27.856Z,23.10
2018-12-31T01:13:28.380Z,22.60
2018-12-31T01:14:29.345Z,22.50
2018-12-31T01:15:26.858Z,22.70
2018-12-31T01:16:30.855Z,23.70
2018-12-31T01:17:28.867Z,23.40
2018-12-31T01:18:30.856Z,25.80
2018-12-31T01:19:27.303Z,25.50
2018-12-31T01:20:28.553Z,27.90
2018-12-31T01:21:29.365Z,28.60
2018-12-31T01:22:35.381Z,27.40
2018-12-31T01:23:28.974Z,31.10
2018-12-31T01:24:39.885Z,32.50
2018-12-31T01:25:31.869Z,30.20
2018-12-31T01:26:28.506Z,31.80
2018-12-31T01:27:30.368Z,30.60
2018-12-31T01:28:29.853Z,34.20
2018-12-31T01:29:30.880Z,34.70
2018-12-31T01:30:30.853Z,34.50
2018-12-31T01:31:29.203Z,35.10
2018-12-31T01:32:32.858Z,37.00
2018-12-31T01:33:31.353Z,35.90
2018-12-31T01:34:31.386Z,38.60
2018-12-31T01:35:33.375Z,38.30
2018-12-31T01:36:45.397Z,34.30
2018-12-31T01:37:31.906Z,38.90
2018-12-31T01:38:31.114Z,36.40
2018-12-31T01:39:31.863Z,37.10
2018-12-31T01:40:30.482Z,41.10
2018-12-31T01:41:32.373Z,40.10
2018-12-31T01:42:30.712Z,40.90
2018-12-31T01:43:30.921Z,42.50
2018-12-31T01:44:32.133Z,42.20
2018-12-31T01:45:32.864Z,41.40
2018-12-31T01:46:33.358Z,39.70
2018-12-31T01:47:31.682Z,39.80
2018-12-31T01:48:33.887Z,43.10
2018-12-31T01:49:32.115Z,40.20
2018-12-31T01:50:33.308Z,41.20
2018-12-31T01:51:34.359Z,41.60
2018-12-31T01:52:32.740Z,39.40
2018-12-31T01:53:34.862Z,40.30
2018-12-31T01:54:34.907Z,41.10
2018-12-31T01:55:33.232Z,40.40
2018-12-31T01:56:34.433Z,38.20
2018-12-31T01:57:33.660Z,38.30
2018-12-31T01:58:33.895Z,39.10
2018-12-31T01:59:35.874Z,40.80
2018-12-31T02:00:35.870Z,35.90
2018-12-31T02:01:34.314Z,40.10
2018-12-31T02:02:42.391Z,39.10
2018-12-31T02:03:35.978Z,38.20
2018-12-31T02:04:36.858Z,35.70
2018-12-31T02:05:35.087Z,38.20
2018-12-31T02:06:39.656Z,38.20
2018-12-31T02:07:35.505Z,38.70
2018-12-31T02:08:35.729Z,40.30
2018-12-31T02:09:37.878Z,36.00
2018-12-31T02:10:39.869Z,37.20
2018-12-31T02:11:38.901Z,36.50
2018-12-31T02:12:36.517Z,37.70
2018-12-31T02:13:37.624Z,35.50
2018-12-31T02:14:52.379Z,34.10
2018-12-31T02:15:36.840Z,36.80
2018-12-31T02:16:37.071Z,32.30
2018-12-31T02:17:38.857Z,33.30
2018-12-31T02:18:37.319Z,33.80
2018-12-31T02:19:39.358Z,33.00
2018-12-31T02:20:38.341Z,34.40
2018-12-31T02:21:38.955Z,33.20
2018-12-31T02:22:39.864Z,34.00
2018-12-31T02:23:38.211Z,33.10
2018-12-31T02:24:38.399Z,31.70
2018-12-31T02:25:42.369Z,32.70
2018-12-31T02:26:40.355Z,35.60
2018-12-31T02:27:38.977Z,34.40
2018-12-31T02:28:40.880Z,35.50
2018-12-31T02:29:39.217Z,37.00
2018-12-31T02:30:41.355Z,36.80
2018-12-31T02:31:41.370Z,37.70
2018-12-31T02:32:39.721Z,38.10
2018-12-31T02:33:41.859Z,37.30
2018-12-31T02:34:40.070Z,36.60
2018-12-31T02:35:45.917Z,36.60
2018-12-31T02:36:40.462Z,36.80
2018-12-31T02:37:47.388Z,37.70
2018-12-31T02:38:40.845Z,36.40
2018-12-31T02:39:43.853Z,38.10
2018-12-31T02:40:41.193Z,37.70
2018-12-31T02:41:43.359Z,37.90
2018-12-31T02:42:43.378Z,41.70
2018-12-31T02:43:48.368Z,43.50
2018-12-31T02:44:43.360Z,46.90
2018-12-31T02:45:45.873Z,43.60
2018-12-31T02:46:43.117Z,46.90
2018-12-31T02:47:43.856Z,48.50
2018-12-31T02:48:44.408Z,53.00
2018-12-31T02:49:42.643Z,52.40
2018-12-31T02:50:49.410Z,55.60
2018-12-31T02:51:43.065Z,56.00
2018-12-31T02:52:44.904Z,61.30
2018-12-31T02:53:44.493Z,58.60
2018-12-31T02:54:45.358Z,64.70
2018-12-31T02:55:44.815Z,77.50
2018-12-31T02:56:44.027Z,75.20
2018-12-31T02:57:49.893Z,85.00
2018-12-31T02:58:44.361Z,77.90
2018-12-31T02:59:48.365Z,77.70
2018-12-31T03:00:46.374Z,85.40
2018-12-31T03:01:46.374Z,76.50
2018-12-31T03:02:44.950Z,71.30
2018-12-31T03:03:45.179Z,77.00
2018-12-31T03:04:46.860Z,75.80
2018-12-31T03:05:47.375Z,81.10
2018-12-31T03:06:45.804Z,78.70
2018-12-31T03:07:46.810Z,84.40
2018-12-31T03:08:47.859Z,88.00
2018-12-31T03:09:46.072Z,85.60
2018-12-31T03:10:46.288Z,99.30
2018-12-31T03:11:47.001Z,112.90
2018-12-31T03:12:53.075Z,88.50
2018-12-31T03:13:48.362Z,87.70
2018-12-31T03:15:02.884Z,110.70
2018-12-31T03:15:48.906Z,111.40
2018-12-31T03:16:54.875Z,119.70
2018-12-31T03:17:49.311Z,191.00
2018-12-31T03:18:47.672Z,265.00
2018-12-31T03:19:49.360Z,182.00
2018-12-31T03:20:50.858Z,269.10
2018-12-31T03:21:51.906Z,246.50
2018-12-31T03:22:48.367Z,166.70
2018-12-31T03:23:52.370Z,119.70
2018-12-31T03:24:50.358Z,126.10
2018-12-31T03:25:52.359Z,121.40
2018-12-31T03:26:49.993Z,179.90
2018-12-31T03:27:50.859Z,120.90
2018-12-31T03:28:49.186Z,110.90
2018-12-31T03:29:51.366Z,111.50
2018-12-31T03:30:58.315Z,103.30
2018-12-31T03:31:51.358Z,102.60
2018-12-31T03:32:51.916Z,102.40
2018-12-31T03:33:50.132Z,122.50
2018-12-31T03:34:51.875Z,116.40
2018-12-31T03:35:50.498Z,95.80
2018-12-31T03:36:50.600Z,92.40
2018-12-31T03:37:52.372Z,109.40
2018-12-31T03:38:52.865Z,114.30
2018-12-31T03:39:51.054Z,117.80
2018-12-31T03:40:51.266Z,105.20
2018-12-31T03:41:55.365Z,109.60
2018-12-31T03:42:51.713Z,134.30
2018-12-31T03:43:53.381Z,185.70
2018-12-31T03:44:57.946Z,226.50
2018-12-31T03:45:53.868Z,326.80
2018-12-31T03:46:52.330Z,279.30
2018-12-31T03:47:52.536Z,202.10
2018-12-31T03:48:56.319Z,198.90
2018-12-31T03:50:01.840Z,209.50
2018-12-31T03:50:55.905Z,195.40
2018-12-31T03:51:54.877Z,163.20
2018-12-31T03:52:54.888Z,110.90
2018-12-31T03:53:53.485Z,142.20
2018-12-31T03:54:55.396Z,136.50
2018-12-31T03:56:14.869Z,108.20
2018-12-31T03:57:05.016Z,102.80
2018-12-31T03:57:55.897Z,151.10
2018-12-31T03:58:55.422Z,235.50
2018-12-31T03:59:56.357Z,459.50
2018-12-31T04:01:10.375Z,250.00
2018-12-31T04:01:54.934Z,433.10
2018-12-31T04:02:56.861Z,194.30
2018-12-31T04:03:56.329Z,376.10
2018-12-31T04:04:55.548Z,437.00
2018-12-31T04:05:58.390Z,519.50
2018-12-31T04:06:55.983Z,501.50
2018-12-31T04:07:57.865Z,262.70
2018-12-31T04:08:57.469Z,407.60
2018-12-31T04:09:58.362Z,515.90
2018-12-31T04:10:58.383Z,432.20
2018-12-31T04:12:02.380Z,429.80
2018-12-31T04:13:00.872Z,406.60
2018-12-31T04:13:58.859Z,505.50
2018-12-31T04:14:57.350Z,401.30
2018-12-31T04:15:59.365Z,686.30
2018-12-31T04:16:57.700Z,725.20
2018-12-31T04:17:57.940Z,565.10
2018-12-31T04:19:13.910Z,702.10
2018-12-31T04:19:59.876Z,387.20
2018-12-31T04:20:58.448Z,473.40
2018-12-31T04:21:59.673Z,289.50
2018-12-31T04:22:58.864Z,620.20
2018-12-31T04:23:59.075Z,508.60
2018-12-31T04:25:02.869Z,502.50
2018-12-31T04:26:03.365Z,459.70
2018-12-31T04:27:11.595Z,339.80
2018-12-31T04:28:03.365Z,600.00
2018-12-31T04:29:03.898Z,462.90
2018-12-31T04:30:01.133Z,430.50
2018-12-31T04:31:00.219Z,558.70
2018-12-31T04:32:02.392Z,528.10
2018-12-31T04:33:00.617Z,496.90
2018-12-31T04:34:02.417Z,547.60
2018-12-31T04:35:02.906Z,479.80
2018-12-31T04:36:01.227Z,551.20
2018-12-31T04:37:01.425Z,576.70
2018-12-31T04:38:01.657Z,609.20
2018-12-31T04:39:02.882Z,739.80
2018-12-31T04:40:01.958Z,523.80
2018-12-31T04:41:03.864Z,816.20
2018-12-31T04:42:02.308Z,570.90
2018-12-31T04:43:02.527Z,574.70
2018-12-31T04:44:02.740Z,558.80
2018-12-31T04:45:04.862Z,740.30
2018-12-31T04:46:04.885Z,662.30
2018-12-31T04:47:03.330Z,716.00
2018-12-31T04:48:03.545Z,612.50
2018-12-31T04:49:06.417Z,668.30
2018-12-31T04:50:04.880Z,663.40
2018-12-31T04:51:05.921Z,806.30
2018-12-31T04:52:07.910Z,651.40
2018-12-31T04:53:06.370Z,635.50
2018-12-31T04:54:08.376Z,585.20
2018-12-31T04:55:06.388Z,642.50
2018-12-31T04:56:08.869Z,739.60
2018-12-31T04:57:09.904Z,586.20
2018-12-31T04:58:05.395Z,540.00
2018-12-31T04:59:07.440Z,550.90
2018-12-31T05:00:05.812Z,540.30
2018-12-31T05:01:06.072Z,599.70
2018-12-31T05:02:07.863Z,448.80
2018-12-31T05:03:06.230Z,620.60
2018-12-31T05:04:08.361Z,474.80
2018-12-31T05:05:08.374Z,604.90
2018-12-31T05:06:10.379Z,727.10
2018-12-31T05:07:09.340Z,522.10
2018-12-31T05:08:27.953Z,775.10
2018-12-31T05:09:08.872Z,724.40
2018-12-31T05:10:09.819Z,701.40
2018-12-31T05:11:07.544Z,687.10
2018-12-31T05:12:09.372Z,550.00
2018-12-31T05:13:11.904Z,671.50
2018-12-31T05:14:08.132Z,727.30
2018-12-31T05:15:11.860Z,632.30
2018-12-31T05:16:14.594Z,601.30
2018-12-31T05:18:42.392Z,522.00
2018-12-31T05:19:42.102Z,739.00
2018-12-31T05:20:44.910Z,754.80
2018-12-31T05:21:42.388Z,717.40
2018-12-31T05:22:43.466Z,672.60
2018-12-31T05:23:44.124Z,791.20
2018-12-31T05:24:43.423Z,658.20
2018-12-31T05:25:41.991Z,646.10
2018-12-31T05:26:43.888Z,595.30
2018-12-31T05:27:45.886Z,567.10
2018-12-31T05:28:47.951Z,567.80
2018-12-31T05:29:44.382Z,468.70
2018-12-31T05:30:43.709Z,517.10
2018-12-31T05:31:44.787Z,588.40
2018-12-31T05:32:44.903Z,630.90
2018-12-31T05:33:43.257Z,648.70
2018-12-31T05:34:46.367Z,525.30
2018-12-31T05:35:55.506Z,437.10
2018-12-31T05:36:45.386Z,423.10
2018-12-31T05:37:44.839Z,329.70
2018-12-31T05:38:45.932Z,244.00
2018-12-31T05:39:45.247Z,229.90
2018-12-31T05:40:45.883Z,260.20
2018-12-31T05:41:44.466Z,155.10
2018-12-31T05:42:45.709Z,128.80
2018-12-31T05:43:48.387Z,134.40
2018-12-31T05:44:52.888Z,133.10
2018-12-31T05:45:46.893Z,127.30
2018-12-31T05:46:48.902Z,135.60
2018-12-31T05:47:47.395Z,111.40
2018-12-31T05:48:46.352Z,117.30
2018-12-31T05:49:45.957Z,121.30
2018-12-31T05:50:53.918Z,108.00
2018-12-31T05:51:46.350Z,80.60
2018-12-31T05:52:47.566Z,109.20
2018-12-31T05:53:50.386Z,87.70
2018-12-31T05:54:47.980Z,92.90
2018-12-31T05:55:48.916Z,107.60
2018-12-31T05:56:47.379Z,107.00
2018-12-31T05:57:50.417Z,107.50
2018-12-31T05:58:49.387Z,113.00
2018-12-31T05:59:51.888Z,109.10
2018-12-31T06:00:49.939Z,89.40
2018-12-31T06:01:49.911Z,85.70
2018-12-31T06:02:49.391Z,85.40
2018-12-31T06:03:50.400Z,103.80
2018-12-31T06:04:49.951Z,101.60
2018-12-31T06:05:50.948Z,99.90
2018-12-31T06:06:49.027Z,102.00
2018-12-31T06:07:50.242Z,86.50
2018-12-31T06:09:01.526Z,131.80
2018-12-31T06:09:53.386Z,181.50
2018-12-31T06:10:50.713Z,124.60
2018-12-31T06:11:51.891Z,112.50
2018-12-31T06:12:51.890Z,130.60
2018-12-31T06:14:14.906Z,92.40
2018-12-31T06:14:50.357Z,104.50
2018-12-31T06:15:57.394Z,143.20
2018-12-31T06:16:52.383Z,108.60
2018-12-31T06:17:52.384Z,160.10
2018-12-31T06:18:52.907Z,140.80
2018-12-31T06:19:54.902Z,144.40
2018-12-31T06:20:51.461Z,122.00
2018-12-31T06:21:51.671Z,131.60
2018-12-31T06:22:51.872Z,105.70
2018-12-31T06:23:53.116Z,116.10
2018-12-31T06:24:52.271Z,133.20
2018-12-31T06:25:54.359Z,120.30
2018-12-31T06:26:54.428Z,113.30
2018-12-31T06:27:54.439Z,88.90
2018-12-31T06:28:54.893Z,104.80
2018-12-31T06:30:17.908Z,135.50
2018-12-31T06:30:53.353Z,151.60
2018-12-31T06:31:59.403Z,151.70
2018-12-31T06:32:54.768Z,153.90
2018-12-31T06:33:57.432Z,223.90
2018-12-31T06:34:57.891Z,343.70
2018-12-31T06:36:15.230Z,196.60
2018-12-31T06:36:56.388Z,193.80
2018-12-31T06:37:55.636Z,498.20
2018-12-31T06:39:10.388Z,282.80
2018-12-31T06:39:56.891Z,238.30
2018-12-31T06:40:55.089Z,335.60
2018-12-31T06:41:55.841Z,290.80
2018-12-31T06:42:57.391Z,240.50
2018-12-31T06:43:55.601Z,419.90
2018-12-31T06:44:59.439Z,298.00
2018-12-31T06:45:57.059Z,207.40
2018-12-31T06:46:59.893Z,160.20
2018-12-31T06:47:56.409Z,195.30
2018-12-31T06:48:56.506Z,163.10
2018-12-31T06:49:58.388Z,207.80
2018-12-31T06:50:59.339Z,135.40
2018-12-31T06:52:00.885Z,158.30
2018-12-31T06:53:12.923Z,118.30
2018-12-31T06:53:57.331Z,113.70
2018-12-31T06:54:59.415Z,118.70
2018-12-31T06:55:57.742Z,105.00
2018-12-31T06:57:01.933Z,92.40
2018-12-31T06:57:59.183Z,147.90
2018-12-31T06:59:01.885Z,110.90
2018-12-31T07:00:06.353Z,117.60
2018-12-31T07:00:59.722Z,120.00
2018-12-31T07:02:02.883Z,111.00
2018-12-31T07:03:01.919Z,113.80
2018-12-31T07:04:00.905Z,102.20
2018-12-31T07:05:06.903Z,104.40
2018-12-31T07:06:01.407Z,93.30
2018-12-31T07:07:11.568Z,111.20
2018-12-31T07:07:59.879Z,100.00
2018-12-31T07:09:00.084Z,93.80
2018-12-31T07:10:00.287Z,119.20
2018-12-31T07:11:02.417Z,94.80
2018-12-31T07:12:02.398Z,111.30
2018-12-31T07:13:03.464Z,86.00
2018-12-31T07:14:01.011Z,102.50
2018-12-31T07:15:03.880Z,106.40
2018-12-31T07:16:01.454Z,115.70
2018-12-31T07:17:04.343Z,102.50
2018-12-31T07:18:04.437Z,98.00
2018-12-31T07:19:02.021Z,118.60
2018-12-31T07:20:24.891Z,134.50
2018-12-31T07:21:02.450Z,131.10
2018-12-31T07:22:04.400Z,106.20
2018-12-31T07:23:25.394Z,117.70
2018-12-31T07:24:03.100Z,96.40
2018-12-31T07:25:25.327Z,107.80
2018-12-31T07:26:04.542Z,90.80
2018-12-31T07:27:04.994Z,104.10
2018-12-31T07:28:03.975Z,98.90
2018-12-31T07:29:06.387Z,100.70
2018-12-31T07:30:05.325Z,86.10
2018-12-31T07:31:05.429Z,256.30
2018-12-31T07:32:06.418Z,163.60
2018-12-31T07:33:04.647Z,122.40
2018-12-31T07:34:11.951Z,176.90
2018-12-31T07:35:06.891Z,134.70
2018-12-31T07:36:08.913Z,144.90
2018-12-31T07:37:08.904Z,138.00
2018-12-31T07:38:05.547Z,130.80
2018-12-31T07:39:06.652Z,170.10
2018-12-31T07:40:05.858Z,337.30
2018-12-31T07:41:07.890Z,216.70
2018-12-31T07:42:07.901Z,284.90
2018-12-31T07:43:10.330Z,131.50
2018-12-31T07:44:06.554Z,188.80
2018-12-31T07:45:06.775Z,159.00
2018-12-31T07:46:10.885Z,341.40
2018-12-31T07:47:07.180Z,184.70
2018-12-31T07:48:10.921Z,144.50
2018-12-31T07:49:09.448Z,134.40
2018-12-31T07:50:09.401Z,144.60
2018-12-31T07:51:07.851Z,144.60
2018-12-31T07:52:08.060Z,114.80
2018-12-31T07:53:09.896Z,117.00
2018-12-31T07:54:12.407Z,120.20
2018-12-31T07:55:16.386Z,99.10
2018-12-31T07:56:12.386Z,115.20
2018-12-31T07:57:10.887Z,132.70
2018-12-31T07:58:12.889Z,115.10
2018-12-31T07:59:10.917Z,131.00
2018-12-31T08:00:12.885Z,107.30
2018-12-31T08:01:10.344Z,103.40
2018-12-31T08:02:10.843Z,104.20
2018-12-31T08:03:11.888Z,84.50
2018-12-31T08:04:11.255Z,102.10
2018-12-31T08:05:12.520Z,140.00
2018-12-31T08:06:26.434Z,101.10
2018-12-31T08:07:11.367Z,103.20
2018-12-31T08:08:12.391Z,102.40
2018-12-31T08:09:14.907Z,96.30
2018-12-31T08:10:11.211Z,102.40
2018-12-31T08:11:19.386Z,103.10
2018-12-31T08:12:11.603Z,91.40
2018-12-31T08:13:15.394Z,99.50
2018-12-31T08:14:11.965Z,87.90
2018-12-31T08:15:13.900Z,105.10
2018-12-31T08:16:14.918Z,93.30
2018-12-31T08:17:14.395Z,113.10
2018-12-31T08:18:41.424Z,106.50
2018-12-31T08:19:14.896Z,102.40
2018-12-31T08:20:14.924Z,110.50
2018-12-31T08:21:20.894Z,95.70
2018-12-31T08:22:13.402Z,104.30
2018-12-31T08:23:15.489Z,149.50
2018-12-31T08:24:15.416Z,114.80
2018-12-31T08:25:15.933Z,135.10
2018-12-31T08:26:14.165Z,139.90
2018-12-31T08:27:14.383Z,146.40
2018-12-31T08:28:14.618Z,132.20
2018-12-31T08:29:18.388Z,127.40
2018-12-31T08:30:16.387Z,134.80
2018-12-31T08:31:14.978Z,141.60
2018-12-31T08:32:16.549Z,130.00
2018-12-31T08:33:15.399Z,130.10
2018-12-31T08:34:17.435Z,125.60
2018-12-31T08:35:15.730Z,108.00
2018-12-31T08:36:17.915Z,111.70
2018-12-31T08:37:31.899Z,107.60
2018-12-31T08:38:17.931Z,104.60
2018-12-31T08:39:23.887Z,92.90
2018-12-31T08:40:18.395Z,90.40
2018-12-31T08:41:16.733Z,87.90
2018-12-31T08:42:16.954Z,95.80
2018-12-31T08:43:20.899Z,94.90
2018-12-31T08:44:20.893Z,101.40
2018-12-31T08:45:19.409Z,105.30
2018-12-31T08:46:17.623Z,119.70
2018-12-31T08:47:19.398Z,164.20
2018-12-31T08:48:19.889Z,118.30
2018-12-31T08:49:21.912Z,143.60
2018-12-31T08:50:18.262Z,311.50
2018-12-31T08:51:18.484Z,215.30
2018-12-31T08:52:18.721Z,157.40
2018-12-31T08:53:18.825Z,226.70
2018-12-31T08:54:20.349Z,140.90
2018-12-31T08:55:20.872Z,117.20
2018-12-31T08:56:19.436Z,123.70
2018-12-31T08:57:19.537Z,141.60
2018-12-31T08:58:19.737Z,133.10
2018-12-31T08:59:27.934Z,123.00
2018-12-31T09:00:21.957Z,116.90
2018-12-31T09:01:21.891Z,105.00
2018-12-31T09:02:22.401Z,123.20
2018-12-31T09:03:24.411Z,86.40
2018-12-31T09:04:24.390Z,105.40
2018-12-31T09:05:22.527Z,105.90
2018-12-31T09:06:45.892Z,131.40
2018-12-31T09:07:22.903Z,114.20
2018-12-31T09:08:21.348Z,103.70
2018-12-31T09:09:21.589Z,99.50
2018-12-31T09:10:23.391Z,107.70
2018-12-31T09:11:23.013Z,93.50
2018-12-31T09:12:25.904Z,84.80
2018-12-31T09:13:22.224Z,81.40
2018-12-31T09:14:27.436Z,81.80
2018-12-31T09:15:22.642Z,74.60
2018-12-31T09:16:24.389Z,86.90
2018-12-31T09:17:26.923Z,79.80
2018-12-31T09:18:24.893Z,79.00
2018-12-31T09:19:24.912Z,69.20
2018-12-31T09:20:39.450Z,67.20
2018-12-31T09:21:25.395Z,65.40
2018-12-31T09:22:25.400Z,71.70
2018-12-31T09:23:24.969Z,59.60
2018-12-31T09:24:25.884Z,63.10
2018-12-31T09:25:27.888Z,57.80
2018-12-31T09:26:28.450Z,55.60
2018-12-31T09:27:26.394Z,49.80
2018-12-31T09:28:26.394Z,48.20
2018-12-31T09:29:26.890Z,41.70
2018-12-31T09:30:28.908Z,41.40
2018-12-31T09:31:28.894Z,30.10
2018-12-31T09:32:27.389Z,22.90
2018-12-31T09:33:25.604Z,18.40
2018-12-31T09:34:27.403Z,16.40
2018-12-31T09:35:25.999Z,16.10
2018-12-31T09:36:26.241Z,16.20
2018-12-31T09:37:26.349Z,13.60
2018-12-31T09:38:28.419Z,12.90
2018-12-31T09:39:26.732Z,14.70
2018-12-31T09:40:26.984Z,13.90
2018-12-31T09:41:28.897Z,16.40
2018-12-31T09:42:30.893Z,16.30
2018-12-31T09:43:27.471Z,16.60
2018-12-31T09:44:27.683Z,17.10
2018-12-31T09:45:27.889Z,17.90
2018-12-31T09:46:29.120Z,17.20
2018-12-31T09:47:28.338Z,17.80
2018-12-31T09:48:30.437Z,18.10
2018-12-31T09:49:30.398Z,19.40
2018-12-31T09:50:28.871Z,17.00
2018-12-31T09:51:29.082Z,18.10
2018-12-31T09:52:29.297Z,18.30
2018-12-31T09:53:29.519Z,18.50
2018-12-31T09:54:33.791Z,19.20
2018-12-31T09:55:29.887Z,19.30
2018-12-31T09:56:30.112Z,21.10
2018-12-31T09:57:31.346Z,22.20
2018-12-31T09:58:32.423Z,19.70
2018-12-31T09:59:32.398Z,19.90
2018-12-31T10:00:30.728Z,19.70
2018-12-31T10:01:32.897Z,20.40
2018-12-31T10:02:31.103Z,20.80
2018-12-31T10:03:32.893Z,18.30
2018-12-31T10:04:35.413Z,19.10
2018-12-31T10:05:31.603Z,15.80
2018-12-31T10:06:31.816Z,18.60
2018-12-31T10:07:33.907Z,16.00
2018-12-31T10:08:33.232Z,17.80
2018-12-31T10:09:32.443Z,17.40
2018-12-31T10:10:32.648Z,19.60
2018-12-31T10:11:32.890Z,20.00
2018-12-31T10:12:32.982Z,20.60
2018-12-31T10:13:36.938Z,21.50
2018-12-31T10:14:34.907Z,20.80
2018-12-31T10:15:33.495Z,19.90
2018-12-31T10:16:33.705Z,19.60
2018-12-31T10:17:33.927Z,19.40
2018-12-31T10:18:35.141Z,17.30
2018-12-31T10:19:34.347Z,17.20
2018-12-31T10:20:34.617Z,17.40
2018-12-31T10:21:40.982Z,17.50
2018-12-31T10:22:36.893Z,16.60
2018-12-31T10:23:36.896Z,16.70
2018-12-31T10:24:35.265Z,16.90
2018-12-31T10:25:35.460Z,16.40
2018-12-31T10:26:35.671Z,16.00
2018-12-31T10:27:39.397Z,15.90
2018-12-31T10:28:37.004Z,16.70
2018-12-31T10:29:36.457Z,15.80
2018-12-31T10:30:36.299Z,15.30
2018-12-31T10:31:36.564Z,15.60
2018-12-31T10:32:38.395Z,14.90
2018-12-31T10:33:36.845Z,14.50
2018-12-31T10:34:37.980Z,14.80
2018-12-31T10:35:37.197Z,14.30
2018-12-31T10:36:37.418Z,14.00
2018-12-31T10:37:41.401Z,13.70
2018-12-31T10:38:38.865Z,13.40
2018-12-31T10:39:39.922Z,15.70
2018-12-31T10:40:38.269Z,11.80
2018-12-31T10:41:38.474Z,10.60
2018-12-31T10:42:38.692Z,9.20
2018-12-31T10:43:38.897Z,9.60
2018-12-31T10:44:40.126Z,9.60
2018-12-31T10:45:40.898Z,10.00
2018-12-31T10:46:40.894Z,10.20
2018-12-31T10:47:39.615Z,9.10
2018-12-31T10:48:39.822Z,8.90
2018-12-31T10:49:41.899Z,8.20
2018-12-31T10:50:40.238Z,7.70
2018-12-31T10:51:42.396Z,8.00
2018-12-31T10:52:41.610Z,8.30
2018-12-31T10:53:40.827Z,8.30
2018-12-31T10:54:41.031Z,8.30
2018-12-31T10:55:42.897Z,8.50
2018-12-31T10:56:43.406Z,8.40
2018-12-31T10:57:41.685Z,8.40
2018-12-31T10:58:41.830Z,8.90
2018-12-31T10:59:42.058Z,9.20
2018-12-31T11:00:42.261Z,8.90
2018-12-31T11:01:42.470Z,9.50
2018-12-31T11:02:44.402Z,9.40
2018-12-31T11:03:42.872Z,10.10
2018-12-31T11:04:44.926Z,9.40
2018-12-31T11:05:44.911Z,8.20
2018-12-31T11:06:45.406Z,7.50
2018-12-31T11:07:43.605Z,7.00
2018-12-31T11:08:45.399Z,7.90
2018-12-31T11:09:45.920Z,5.50
2018-12-31T11:10:45.902Z,6.30
2018-12-31T11:11:44.235Z,7.70
2018-12-31T11:12:46.450Z,6.60
2018-12-31T11:13:44.687Z,5.80
2018-12-31T11:14:44.918Z,4.30
2018-12-31T11:15:46.915Z,3.70
2018-12-31T11:16:45.262Z,3.80
2018-12-31T11:17:47.397Z,3.80
2018-12-31T11:18:45.658Z,4.00
2018-12-31T11:19:47.450Z,3.40
2018-12-31T11:20:45.933Z,3.50
2018-12-31T11:21:46.143Z,3.30
2018-12-31T11:22:47.919Z,3.30
2018-12-31T11:23:46.509Z,2.90
2018-12-31T11:24:48.397Z,2.70
2018-12-31T11:25:46.876Z,2.70
2018-12-31T11:26:47.088Z,2.40
2018-12-31T11:27:47.193Z,2.40
2018-12-31T11:28:48.901Z,2.40
2018-12-31T11:29:49.407Z,2.40
2018-12-31T11:30:48.745Z,2.00
2018-12-31T11:31:47.971Z,2.20
2018-12-31T11:32:49.901Z,2.30
2018-12-31T11:33:48.365Z,2.10
2018-12-31T11:34:48.593Z,2.10
2018-12-31T11:35:50.761Z,1.80
2018-12-31T11:36:50.410Z,1.80
2018-12-31T11:37:52.930Z,1.80
2018-12-31T11:38:50.252Z,1.60
2018-12-31T11:39:49.349Z,1.70
2018-12-31T11:40:49.602Z,1.60
2018-12-31T11:41:49.808Z,1.60
2018-12-31T11:42:50.025Z,1.50
2018-12-31T11:43:51.905Z,1.70
2018-12-31T11:44:51.910Z,1.70
2018-12-31T11:45:50.492Z,1.60
2018-12-31T11:46:52.405Z,2.20
2018-12-31T11:47:50.875Z,1.70
2018-12-31T11:48:58.899Z,1.90
2018-12-31T11:49:51.221Z,2.10
2018-12-31T11:50:53.404Z,2.20
2018-12-31T11:51:51.619Z,1.90
2018-12-31T11:52:51.725Z,2.40
2018-12-31T11:53:51.950Z,2.10
2018-12-31T11:54:53.931Z,1.70
2018-12-31T11:55:53.906Z,2.20
2018-12-31T11:56:54.449Z,1.80
2018-12-31T11:57:52.615Z,1.90
2018-12-31T11:58:52.830Z,1.70
2018-12-31T11:59:53.048Z,1.80
2018-12-31T12:00:53.280Z,1.80
2018-12-31T12:01:53.491Z,2.10
2018-12-31T12:02:55.416Z,1.80
2018-12-31T12:03:55.404Z,1.90
2018-12-31T12:04:53.997Z,1.90
2018-12-31T12:05:54.202Z,2.60
2018-12-31T12:06:55.906Z,2.60
2018-12-31T12:07:56.450Z,2.70
2018-12-31T12:08:54.737Z,3.10
2018-12-31T12:09:56.909Z,2.30
2018-12-31T12:10:56.901Z,2.80
2018-12-31T12:11:56.903Z,2.40
2018-12-31T12:12:55.377Z,2.50
2018-12-31T12:13:57.404Z,2.30
2018-12-31T12:14:55.781Z,2.60
2018-12-31T12:15:57.908Z,3.30
2018-12-31T12:16:56.105Z,2.90
2018-12-31T12:17:56.323Z,3.70
2018-12-31T12:18:56.526Z,3.00
2018-12-31T12:19:56.749Z,3.60
2018-12-31T12:20:58.909Z,3.30
2018-12-31T12:21:57.738Z,4.20
2018-12-31T12:22:58.903Z,4.60
2018-12-31T12:23:59.412Z,3.60
2018-12-31T12:24:59.421Z,3.30
2018-12-31T12:25:57.778Z,3.40
2018-12-31T12:26:57.985Z,4.20
2018-12-31T12:27:59.905Z,4.60
2018-12-31T12:28:59.920Z,3.90
2018-12-31T12:29:58.502Z,3.70
2018-12-31T12:30:58.710Z,3.40
2018-12-31T12:31:58.929Z,3.80
2018-12-31T12:32:59.134Z,4.10
2018-12-31T12:33:59.341Z,3.40
2018-12-31T12:35:01.443Z,4.30
2018-12-31T12:36:01.459Z,11.20
2018-12-31T12:36:59.888Z,8.00
2018-12-31T12:38:00.099Z,4.90
2018-12-31T12:39:01.903Z,4.70
2018-12-31T12:40:02.413Z,5.00
2018-12-31T12:41:00.626Z,4.90
2018-12-31T12:42:00.867Z,5.80
2018-12-31T12:43:04.907Z,6.00
2018-12-31T12:44:01.229Z,5.90
2018-12-31T12:45:03.421Z,5.60
2018-12-31T12:46:02.654Z,6.00
2018-12-31T12:47:01.862Z,6.20
2018-12-31T12:48:02.085Z,6.30
2018-12-31T12:49:02.291Z,6.20
2018-12-31T12:50:04.433Z,6.10